KBCE/BCE METAR and TAF weather

Enter ICAO airport designator
Station Type Date Time Source
KBCE METAR 2019/10/20 18:53 UTC NOAA

KBCE 201853Z AUTO 31018G27KT 10SM CLR 05/M12 A3014 RMK AO2 PK WND 32028/1758 SLP142 T00501117


Station Type Date Time Source
KBCE Decoded METAR 2019/10/20 18:53 UTC NOAA

BRYCE CANYON AIRPORT, UT, United States (KBCE) 37-42N 112-09W 2312M
Oct 20, 2019 - 02:53 PM EDT / 2019.10.20 1853 UTC
Wind: from the NW (310 degrees) at 21 MPH (18 KT) gusting to 31 MPH (27 KT):0
Visibility: 10 mile(s):0
Sky conditions: clear
Temperature: 41.0 F (5.0 C)
Dew Point: 10.9 F (-11.7 C)
Relative Humidity: 28%
Pressure (altimeter): 30.14 in. Hg (1020 hPa)
ob: KBCE 201853Z AUTO 31018G27KT 10SM CLR 05/M12 A3014 RMK AO2 PK WND 32028/1758 SLP142 T00501117
cycle: 19

Station Type Date Time Source
KBCE TAF 2019/10/20 18:39 UTC NOAA

TAF KBCE 201735Z 2018/2118 33018G28KT P6SM SCT080 SCT150
FM210200 31008KT P6SM SCT150

Example: see airport list